Terminal Aerodrome Forecast
Issued by NWS

Home | Current Version | Previous Version | Text Only | Print | Product List | Glossary On
Versions: 1 2 3 4 5 6 7 8 9 10 11 12 13 14 15 16 17 18 19 20 21 22 23 24 25 26 27 28 29 30 31
000
FTUS45 KGJT 041120
TAFASE
TAF
KASE 041120Z 0412/0512 20006KT P6SM BKN150
     FM041800 34008KT P6SM BKN120
     FM042000 33006G15KT P6SM VCTS SCT080CB BKN100
      TEMPO 0420/0424 VRB20G35KT -TSRA SCT050CB
     FM050300 17008KT P6SM BKN100
     FM050700 20006KT P6SM BKN150=

USA.gov is the U.S. government's official web portal to all federal, state and local government web resources and services.